sensor_id;sensor_type;location;lat;lon;timestamp;P1;durP1;ratioP1;P2;durP2;ratioP2
47155;SDS011;32908;52.344;16.858;2022-11-15T00:01:15;70.13;;;35.87;;
47155;SDS011;32908;52.344;16.858;2022-11-15T00:03:45;67.03;;;36.70;;
47155;SDS011;32908;52.344;16.858;2022-11-15T00:06:14;74.10;;;38.43;;
47155;SDS011;32908;52.344;16.858;2022-11-15T00:08:42;74.30;;;38.97;;
47155;SDS011;32908;52.344;16.858;2022-11-15T00:11:11;66.43;;;36.70;;
47155;SDS011;32908;52.344;16.858;2022-11-15T00:13:39;68.53;;;37.63;;
47155;SDS011;32908;52.344;16.858;2022-11-15T00:16:08;73.63;;;38.47;;
47155;SDS011;32908;52.344;16.858;2022-11-15T00:18:38;69.43;;;36.67;;
47155;SDS011;32908;52.344;16.858;2022-11-15T00:21:07;69.33;;;35.83;;
47155;SDS011;32908;52.344;16.858;2022-11-15T00:23:39;71.93;;;36.63;;
47155;SDS011;32908;52.344;16.858;2022-11-15T00:26:08;65.73;;;36.90;;
47155;SDS011;32908;52.344;16.858;2022-11-15T00:28:40;66.97;;;36.70;;
47155;SDS011;32908;52.344;16.858;2022-11-15T00:31:11;69.70;;;35.90;;
47155;SDS011;32908;52.344;16.858;2022-11-15T00:33:43;65.33;;;34.73;;
47155;SDS011;32908;52.344;16.858;2022-11-15T00:36:12;61.47;;;33.27;;
47155;SDS011;32908;52.344;16.858;2022-11-15T00:38:41;63.40;;;35.10;;
47155;SDS011;32908;52.344;16.858;2022-11-15T00:41:09;64.50;;;33.93;;
47155;SDS011;32908;52.344;16.858;2022-11-15T00:43:37;62.63;;;34.60;;
47155;SDS011;32908;52.344;16.858;2022-11-15T00:46:08;56.60;;;31.23;;
47155;SDS011;32908;52.344;16.858;2022-11-15T00:48:37;59.10;;;31.90;;
47155;SDS011;32908;52.344;16.858;2022-11-15T00:51:06;65.50;;;35.50;;
47155;SDS011;32908;52.344;16.858;2022-11-15T00:53:34;58.73;;;33.43;;
47155;SDS011;32908;52.344;16.858;2022-11-15T00:56:02;60.43;;;32.60;;
47155;SDS011;32908;52.344;16.858;2022-11-15T00:58:30;59.23;;;32.80;;
47155;SDS011;32908;52.344;16.858;2022-11-15T01:01:05;59.27;;;32.87;;
47155;SDS011;32908;52.344;16.858;2022-11-15T01:03:34;58.33;;;32.10;;
47155;SDS011;32908;52.344;16.858;2022-11-15T01:06:03;58.93;;;33.20;;
47155;SDS011;32908;52.344;16.858;2022-11-15T01:08:33;56.53;;;31.93;;
47155;SDS011;32908;52.344;16.858;2022-11-15T01:11:02;51.45;;;30.75;;
47155;SDS011;32908;52.344;16.858;2022-11-15T01:13:32;55.40;;;31.10;;
47155;SDS011;32908;52.344;16.858;2022-11-15T01:16:06;59.27;;;32.33;;
47155;SDS011;32908;52.344;16.858;2022-11-15T01:18:36;57.13;;;31.23;;
47155;SDS011;32908;52.344;16.858;2022-11-15T01:21:05;56.07;;;31.93;;
47155;SDS011;32908;52.344;16.858;2022-11-15T01:23:34;59.33;;;31.83;;
47155;SDS011;32908;52.344;16.858;2022-11-15T01:26:03;53.80;;;30.50;;
47155;SDS011;32908;52.344;16.858;2022-11-15T01:28:33;53.30;;;30.15;;
47155;SDS011;32908;52.344;16.858;2022-11-15T01:31:03;51.83;;;29.97;;
47155;SDS011;32908;52.344;16.858;2022-11-15T01:33:34;52.93;;;30.40;;
47155;SDS011;32908;52.344;16.858;2022-11-15T01:36:04;53.53;;;30.97;;
47155;SDS011;32908;52.344;16.858;2022-11-15T01:38:34;48.03;;;29.80;;
47155;SDS011;32908;52.344;16.858;2022-11-15T01:41:02;53.90;;;31.00;;
47155;SDS011;32908;52.344;16.858;2022-11-15T01:43:32;52.63;;;31.77;;
47155;SDS011;32908;52.344;16.858;2022-11-15T01:46:04;53.30;;;31.00;;
47155;SDS011;32908;52.344;16.858;2022-11-15T01:48:36;55.47;;;30.83;;
47155;SDS011;32908;52.344;16.858;2022-11-15T01:51:06;53.30;;;31.35;;
47155;SDS011;32908;52.344;16.858;2022-11-15T01:53:36;54.17;;;32.23;;
47155;SDS011;32908;52.344;16.858;2022-11-15T01:56:07;50.70;;;29.73;;
47155;SDS011;32908;52.344;16.858;2022-11-15T01:58:38;51.77;;;30.67;;
47155;SDS011;32908;52.344;16.858;2022-11-15T02:01:08;52.53;;;30.40;;
47155;SDS011;32908;52.344;16.858;2022-11-15T02:03:37;52.80;;;29.87;;
47155;SDS011;32908;52.344;16.858;2022-11-15T02:06:09;54.37;;;31.50;;
47155;SDS011;32908;52.344;16.858;2022-11-15T02:08:38;60.20;;;32.47;;
47155;SDS011;32908;52.344;16.858;2022-11-15T02:11:08;54.47;;;31.93;;
47155;SDS011;32908;52.344;16.858;2022-11-15T02:13:37;62.93;;;35.23;;
47155;SDS011;32908;52.344;16.858;2022-11-15T02:16:07;59.13;;;31.40;;
47155;SDS011;32908;52.344;16.858;2022-11-15T02:18:40;56.70;;;33.30;;
47155;SDS011;32908;52.344;16.858;2022-11-15T02:21:13;57.70;;;33.57;;
47155;SDS011;32908;52.344;16.858;2022-11-15T02:24:03;51.63;;;32.27;;
47155;SDS011;32908;52.344;16.858;2022-11-15T02:27:01;60.37;;;33.53;;
47155;SDS011;32908;52.344;16.858;2022-11-15T02:29:52;57.87;;;31.20;;
47155;SDS011;32908;52.344;16.858;2022-11-15T02:32:31;46.83;;;29.30;;
47155;SDS011;32908;52.344;16.858;2022-11-15T02:35:06;53.80;;;31.87;;
47155;SDS011;32908;52.344;16.858;2022-11-15T02:37:42;58.38;;;32.10;;
47155;SDS011;32908;52.344;16.858;2022-11-15T02:40:16;60.33;;;35.03;;
47155;SDS011;32908;52.344;16.858;2022-11-15T02:42:49;62.83;;;35.00;;
47155;SDS011;32908;52.344;16.858;2022-11-15T02:45:39;74.00;;;31.50;;
47155;SDS011;32908;52.344;16.858;2022-11-15T02:48:10;57.50;;;31.70;;
47155;SDS011;32908;52.344;16.858;2022-11-15T02:50:38;53.33;;;31.47;;
47155;SDS011;32908;52.344;16.858;2022-11-15T02:53:08;55.70;;;31.77;;
47155;SDS011;32908;52.344;16.858;2022-11-15T02:55:37;57.77;;;33.07;;
47155;SDS011;32908;52.344;16.858;2022-11-15T03:01:03;61.80;;;34.97;;
47155;SDS011;32908;52.344;16.858;2022-11-15T03:03:40;66.50;;;36.27;;
47155;SDS011;32908;52.344;16.858;2022-11-15T03:06:18;85.07;;;43.33;;
47155;SDS011;32908;52.344;16.858;2022-11-15T03:08:53;66.20;;;35.05;;
47155;SDS011;32908;52.344;16.858;2022-11-15T03:11:28;76.80;;;42.10;;
47155;SDS011;32908;52.344;16.858;2022-11-15T03:14:00;73.83;;;39.80;;
47155;SDS011;32908;52.344;16.858;2022-11-15T03:16:34;74.95;;;38.60;;
47155;SDS011;32908;52.344;16.858;2022-11-15T03:19:07;72.53;;;40.20;;
47155;SDS011;32908;52.344;16.858;2022-11-15T03:21:38;62.87;;;36.17;;
47155;SDS011;32908;52.344;16.858;2022-11-15T03:24:08;64.70;;;36.83;;
47155;SDS011;32908;52.344;16.858;2022-11-15T03:26:36;59.07;;;34.00;;
47155;SDS011;32908;52.344;16.858;2022-11-15T03:29:08;52.93;;;31.23;;
47155;SDS011;32908;52.344;16.858;2022-11-15T03:31:40;50.00;;;29.73;;
47155;SDS011;32908;52.344;16.858;2022-11-15T03:34:15;49.67;;;29.47;;
47155;SDS011;32908;52.344;16.858;2022-11-15T03:36:48;45.37;;;28.40;;
47155;SDS011;32908;52.344;16.858;2022-11-15T03:39:17;46.27;;;28.20;;
47155;SDS011;32908;52.344;16.858;2022-11-15T03:41:48;44.20;;;27.27;;
47155;SDS011;32908;52.344;16.858;2022-11-15T03:44:21;45.43;;;29.03;;
47155;SDS011;32908;52.344;16.858;2022-11-15T03:46:59;47.57;;;28.97;;
47155;SDS011;32908;52.344;16.858;2022-11-15T03:49:33;47.43;;;28.27;;
47155;SDS011;32908;52.344;16.858;2022-11-15T03:52:02;50.85;;;28.70;;
47155;SDS011;32908;52.344;16.858;2022-11-15T03:54:31;47.67;;;29.40;;
47155;SDS011;32908;52.344;16.858;2022-11-15T03:57:00;44.90;;;28.53;;
47155;SDS011;32908;52.344;16.858;2022-11-15T03:59:29;45.90;;;27.73;;
47155;SDS011;32908;52.344;16.858;2022-11-15T04:01:57;49.27;;;29.83;;
47155;SDS011;32908;52.344;16.858;2022-11-15T04:04:26;52.03;;;28.60;;
47155;SDS011;32908;52.344;16.858;2022-11-15T04:06:54;63.77;;;30.83;;
47155;SDS011;32908;52.344;16.858;2022-11-15T04:09:23;57.77;;;31.77;;
47155;SDS011;32908;52.344;16.858;2022-11-15T04:11:52;55.40;;;30.60;;
47155;SDS011;32908;52.344;16.858;2022-11-15T04:14:20;53.17;;;29.73;;
47155;SDS011;32908;52.344;16.858;2022-11-15T04:16:49;47.87;;;28.27;;
47155;SDS011;32908;52.344;16.858;2022-11-15T04:19:17;47.90;;;27.75;;
47155;SDS011;32908;52.344;16.858;2022-11-15T04:22:03;50.47;;;28.90;;
47155;SDS011;32908;52.344;16.858;2022-11-15T04:24:49;47.37;;;28.80;;
47155;SDS011;32908;52.344;16.858;2022-11-15T04:27:18;50.47;;;29.40;;
47155;SDS011;32908;52.344;16.858;2022-11-15T04:29:46;53.43;;;28.00;;
47155;SDS011;32908;52.344;16.858;2022-11-15T04:32:14;50.60;;;29.80;;
47155;SDS011;32908;52.344;16.858;2022-11-15T04:34:43;50.30;;;29.57;;
47155;SDS011;32908;52.344;16.858;2022-11-15T04:37:11;47.60;;;28.63;;
47155;SDS011;32908;52.344;16.858;2022-11-15T04:39:39;47.80;;;27.80;;
47155;SDS011;32908;52.344;16.858;2022-11-15T04:42:07;46.37;;;28.57;;
47155;SDS011;32908;52.344;16.858;2022-11-15T04:44:36;48.47;;;28.63;;
47155;SDS011;32908;52.344;16.858;2022-11-15T04:47:04;52.80;;;30.13;;
47155;SDS011;32908;52.344;16.858;2022-11-15T04:49:33;56.57;;;31.27;;
47155;SDS011;32908;52.344;16.858;2022-11-15T04:52:01;53.13;;;30.70;;
47155;SDS011;32908;52.344;16.858;2022-11-15T04:54:29;59.93;;;33.27;;
47155;SDS011;32908;52.344;16.858;2022-11-15T04:56:58;51.17;;;30.00;;
47155;SDS011;32908;52.344;16.858;2022-11-15T04:59:26;51.27;;;29.43;;
47155;SDS011;32908;52.344;16.858;2022-11-15T05:01:54;51.50;;;29.03;;
47155;SDS011;32908;52.344;16.858;2022-11-15T05:04:22;47.40;;;28.97;;
47155;SDS011;32908;52.344;16.858;2022-11-15T05:06:50;47.43;;;29.70;;
47155;SDS011;32908;52.344;16.858;2022-11-15T05:09:19;55.97;;;31.17;;
47155;SDS011;32908;52.344;16.858;2022-11-15T05:11:48;60.00;;;33.70;;
47155;SDS011;32908;52.344;16.858;2022-11-15T05:14:17;57.90;;;34.10;;
47155;SDS011;32908;52.344;16.858;2022-11-15T05:16:45;57.15;;;34.30;;
47155;SDS011;32908;52.344;16.858;2022-11-15T05:19:14;53.63;;;31.43;;
47155;SDS011;32908;52.344;16.858;2022-11-15T05:21:42;53.47;;;31.47;;
47155;SDS011;32908;52.344;16.858;2022-11-15T05:24:11;58.40;;;31.63;;
47155;SDS011;32908;52.344;16.858;2022-11-15T05:26:39;50.97;;;31.00;;
47155;SDS011;32908;52.344;16.858;2022-11-15T05:29:09;53.73;;;31.70;;
47155;SDS011;32908;52.344;16.858;2022-11-15T05:31:39;53.40;;;31.97;;
47155;SDS011;32908;52.344;16.858;2022-11-15T05:34:09;59.50;;;32.23;;
47155;SDS011;32908;52.344;16.858;2022-11-15T05:36:37;62.03;;;35.00;;
47155;SDS011;32908;52.344;16.858;2022-11-15T05:39:08;58.60;;;33.20;;
47155;SDS011;32908;52.344;16.858;2022-11-15T05:41:37;55.10;;;32.43;;
47155;SDS011;32908;52.344;16.858;2022-11-15T05:44:08;55.83;;;32.10;;
47155;SDS011;32908;52.344;16.858;2022-11-15T05:46:38;55.63;;;33.23;;
47155;SDS011;32908;52.344;16.858;2022-11-15T05:49:07;55.00;;;33.70;;
47155;SDS011;32908;52.344;16.858;2022-11-15T05:51:39;53.97;;;31.93;;
47155;SDS011;32908;52.344;16.858;2022-11-15T05:54:08;62.90;;;36.55;;
47155;SDS011;32908;52.344;16.858;2022-11-15T05:56:37;63.47;;;38.73;;
47155;SDS011;32908;52.344;16.858;2022-11-15T05:59:06;65.57;;;39.57;;
47155;SDS011;32908;52.344;16.858;2022-11-15T06:01:35;64.20;;;34.93;;
47155;SDS011;32908;52.344;16.858;2022-11-15T06:04:04;68.47;;;40.23;;
47155;SDS011;32908;52.344;16.858;2022-11-15T06:06:33;66.17;;;37.43;;
47155;SDS011;32908;52.344;16.858;2022-11-15T06:09:01;62.93;;;36.27;;
47155;SDS011;32908;52.344;16.858;2022-11-15T06:11:30;59.63;;;34.17;;
47155;SDS011;32908;52.344;16.858;2022-11-15T06:13:58;55.77;;;33.20;;
47155;SDS011;32908;52.344;16.858;2022-11-15T06:16:27;57.77;;;35.27;;
47155;SDS011;32908;52.344;16.858;2022-11-15T06:18:56;61.17;;;35.83;;
47155;SDS011;32908;52.344;16.858;2022-11-15T06:21:24;63.90;;;35.43;;
47155;SDS011;32908;52.344;16.858;2022-11-15T06:23:54;56.63;;;33.67;;
47155;SDS011;32908;52.344;16.858;2022-11-15T06:26:22;73.20;;;43.40;;
47155;SDS011;32908;52.344;16.858;2022-11-15T06:28:51;62.47;;;37.03;;
47155;SDS011;32908;52.344;16.858;2022-11-15T06:31:19;55.10;;;34.47;;
47155;SDS011;32908;52.344;16.858;2022-11-15T06:33:47;59.67;;;34.23;;
47155;SDS011;32908;52.344;16.858;2022-11-15T06:36:16;49.43;;;31.87;;
47155;SDS011;32908;52.344;16.858;2022-11-15T06:38:45;61.05;;;34.25;;
47155;SDS011;32908;52.344;16.858;2022-11-15T06:41:13;62.17;;;33.40;;
47155;SDS011;32908;52.344;16.858;2022-11-15T06:43:43;60.43;;;34.60;;
47155;SDS011;32908;52.344;16.858;2022-11-15T06:46:11;64.50;;;36.90;;
47155;SDS011;32908;52.344;16.858;2022-11-15T06:48:39;69.47;;;38.40;;
47155;SDS011;32908;52.344;16.858;2022-11-15T06:51:07;59.00;;;35.90;;
47155;SDS011;32908;52.344;16.858;2022-11-15T06:53:35;56.23;;;33.63;;
47155;SDS011;32908;52.344;16.858;2022-11-15T06:56:05;62.83;;;34.83;;
47155;SDS011;32908;52.344;16.858;2022-11-15T06:58:34;60.20;;;34.97;;
47155;SDS011;32908;52.344;16.858;2022-11-15T07:01:03;59.37;;;31.93;;
47155;SDS011;32908;52.344;16.858;2022-11-15T07:03:35;75.70;;;42.63;;
47155;SDS011;32908;52.344;16.858;2022-11-15T07:06:04;61.00;;;36.77;;
47155;SDS011;32908;52.344;16.858;2022-11-15T07:08:34;60.90;;;34.97;;
47155;SDS011;32908;52.344;16.858;2022-11-15T07:11:04;60.77;;;35.43;;
47155;SDS011;32908;52.344;16.858;2022-11-15T07:13:34;57.93;;;35.53;;
47155;SDS011;32908;52.344;16.858;2022-11-15T07:16:04;61.73;;;36.40;;
47155;SDS011;32908;52.344;16.858;2022-11-15T07:18:34;62.13;;;35.33;;
47155;SDS011;32908;52.344;16.858;2022-11-15T07:21:05;66.33;;;39.13;;
47155;SDS011;32908;52.344;16.858;2022-11-15T07:23:36;64.43;;;36.23;;
47155;SDS011;32908;52.344;16.858;2022-11-15T07:26:05;66.77;;;38.97;;
47155;SDS011;32908;52.344;16.858;2022-11-15T07:28:34;66.23;;;38.37;;
47155;SDS011;32908;52.344;16.858;2022-11-15T07:31:04;66.10;;;37.73;;
47155;SDS011;32908;52.344;16.858;2022-11-15T07:33:34;64.53;;;37.33;;
47155;SDS011;32908;52.344;16.858;2022-11-15T07:36:04;64.47;;;36.63;;
47155;SDS011;32908;52.344;16.858;2022-11-15T07:38:34;66.80;;;37.07;;
47155;SDS011;32908;52.344;16.858;2022-11-15T07:41:04;66.50;;;38.57;;
47155;SDS011;32908;52.344;16.858;2022-11-15T07:43:33;65.83;;;38.13;;
47155;SDS011;32908;52.344;16.858;2022-11-15T07:46:04;68.13;;;39.53;;
47155;SDS011;32908;52.344;16.858;2022-11-15T07:48:35;72.20;;;39.27;;
47155;SDS011;32908;52.344;16.858;2022-11-15T07:51:04;75.17;;;40.47;;
47155;SDS011;32908;52.344;16.858;2022-11-15T07:53:32;70.70;;;38.60;;
47155;SDS011;32908;52.344;16.858;2022-11-15T07:56:01;60.10;;;34.03;;
47155;SDS011;32908;52.344;16.858;2022-11-15T07:58:29;57.37;;;32.33;;
47155;SDS011;32908;52.344;16.858;2022-11-15T08:00:58;57.53;;;31.83;;
47155;SDS011;32908;52.344;16.858;2022-11-15T08:03:29;72.50;;;39.97;;
47155;SDS011;32908;52.344;16.858;2022-11-15T08:05:57;65.13;;;36.73;;
47155;SDS011;32908;52.344;16.858;2022-11-15T08:08:26;72.50;;;41.63;;
47155;SDS011;32908;52.344;16.858;2022-11-15T08:10:56;74.93;;;41.67;;
47155;SDS011;32908;52.344;16.858;2022-11-15T08:13:26;64.87;;;36.27;;
47155;SDS011;32908;52.344;16.858;2022-11-15T08:15:57;66.47;;;35.73;;
47155;SDS011;32908;52.344;16.858;2022-11-15T08:18:26;62.73;;;34.90;;
47155;SDS011;32908;52.344;16.858;2022-11-15T08:20:57;63.87;;;38.57;;
47155;SDS011;32908;52.344;16.858;2022-11-15T08:23:27;79.37;;;44.47;;
47155;SDS011;32908;52.344;16.858;2022-11-15T08:25:59;74.93;;;42.03;;
47155;SDS011;32908;52.344;16.858;2022-11-15T08:28:30;71.53;;;38.70;;
47155;SDS011;32908;52.344;16.858;2022-11-15T08:30:58;70.13;;;37.60;;
47155;SDS011;32908;52.344;16.858;2022-11-15T08:33:27;61.37;;;34.87;;
47155;SDS011;32908;52.344;16.858;2022-11-15T08:35:56;70.00;;;36.90;;
47155;SDS011;32908;52.344;16.858;2022-11-15T08:38:25;63.03;;;36.50;;
47155;SDS011;32908;52.344;16.858;2022-11-15T08:41:00;58.87;;;32.90;;
47155;SDS011;32908;52.344;16.858;2022-11-15T08:43:29;57.47;;;34.13;;
47155;SDS011;32908;52.344;16.858;2022-11-15T08:45:58;65.13;;;32.13;;
47155;SDS011;32908;52.344;16.858;2022-11-15T08:48:26;60.47;;;33.73;;
47155;SDS011;32908;52.344;16.858;2022-11-15T08:50:55;66.33;;;33.87;;
47155;SDS011;32908;52.344;16.858;2022-11-15T08:53:23;66.07;;;34.93;;
47155;SDS011;32908;52.344;16.858;2022-11-15T08:55:52;65.83;;;35.37;;
47155;SDS011;32908;52.344;16.858;2022-11-15T08:58:21;65.37;;;35.23;;
47155;SDS011;32908;52.344;16.858;2022-11-15T09:00:49;65.90;;;35.80;;
47155;SDS011;32908;52.344;16.858;2022-11-15T09:03:17;62.83;;;35.43;;
47155;SDS011;32908;52.344;16.858;2022-11-15T09:05:45;67.67;;;35.17;;
47155;SDS011;32908;52.344;16.858;2022-11-15T09:08:14;68.10;;;35.20;;
47155;SDS011;32908;52.344;16.858;2022-11-15T09:10:43;62.00;;;35.57;;
47155;SDS011;32908;52.344;16.858;2022-11-15T09:13:11;61.13;;;33.20;;
47155;SDS011;32908;52.344;16.858;2022-11-15T09:15:40;62.70;;;34.65;;
47155;SDS011;32908;52.344;16.858;2022-11-15T09:18:08;71.47;;;35.30;;
47155;SDS011;32908;52.344;16.858;2022-11-15T09:20:37;68.70;;;35.63;;
47155;SDS011;32908;52.344;16.858;2022-11-15T09:23:08;64.33;;;36.47;;
47155;SDS011;32908;52.344;16.858;2022-11-15T09:25:37;63.07;;;34.13;;
47155;SDS011;32908;52.344;16.858;2022-11-15T09:28:06;56.10;;;32.97;;
47155;SDS011;32908;52.344;16.858;2022-11-15T09:30:35;60.65;;;33.45;;
47155;SDS011;32908;52.344;16.858;2022-11-15T09:33:06;59.37;;;33.87;;
47155;SDS011;32908;52.344;16.858;2022-11-15T09:35:35;55.20;;;32.40;;
47155;SDS011;32908;52.344;16.858;2022-11-15T09:38:03;59.83;;;34.73;;
47155;SDS011;32908;52.344;16.858;2022-11-15T09:40:32;63.57;;;36.53;;
47155;SDS011;32908;52.344;16.858;2022-11-15T09:43:11;71.27;;;38.63;;
47155;SDS011;32908;52.344;16.858;2022-11-15T09:45:54;76.57;;;42.20;;
47155;SDS011;32908;52.344;16.858;2022-11-15T09:48:33;75.97;;;41.57;;
47155;SDS011;32908;52.344;16.858;2022-11-15T09:51:14;73.73;;;39.13;;
47155;SDS011;32908;52.344;16.858;2022-11-15T09:53:52;69.65;;;38.90;;
47155;SDS011;32908;52.344;16.858;2022-11-15T09:56:32;68.65;;;37.60;;
47155;SDS011;32908;52.344;16.858;2022-11-15T09:59:23;64.00;;;35.10;;
47155;SDS011;32908;52.344;16.858;2022-11-15T10:01:59;66.50;;;38.20;;
47155;SDS011;32908;52.344;16.858;2022-11-15T10:04:36;73.40;;;39.47;;
47155;SDS011;32908;52.344;16.858;2022-11-15T10:07:06;70.97;;;40.70;;
47155;SDS011;32908;52.344;16.858;2022-11-15T10:09:42;67.87;;;38.30;;
47155;SDS011;32908;52.344;16.858;2022-11-15T10:12:12;72.93;;;39.87;;
47155;SDS011;32908;52.344;16.858;2022-11-15T10:14:42;75.40;;;39.13;;
47155;SDS011;32908;52.344;16.858;2022-11-15T10:17:20;73.23;;;40.70;;
47155;SDS011;32908;52.344;16.858;2022-11-15T10:19:59;59.60;;;35.57;;
47155;SDS011;32908;52.344;16.858;2022-11-15T10:22:35;64.73;;;36.80;;
47155;SDS011;32908;52.344;16.858;2022-11-15T10:25:19;67.87;;;38.07;;
47155;SDS011;32908;52.344;16.858;2022-11-15T10:27:56;68.17;;;37.97;;
47155;SDS011;32908;52.344;16.858;2022-11-15T10:30:31;68.15;;;37.55;;
47155;SDS011;32908;52.344;16.858;2022-11-15T10:33:08;66.23;;;38.63;;
47155;SDS011;32908;52.344;16.858;2022-11-15T10:35:41;64.57;;;35.60;;
47155;SDS011;32908;52.344;16.858;2022-11-15T10:38:10;63.90;;;34.60;;
47155;SDS011;32908;52.344;16.858;2022-11-15T10:40:39;65.47;;;37.43;;
47155;SDS011;32908;52.344;16.858;2022-11-15T10:43:15;63.30;;;36.07;;
47155;SDS011;32908;52.344;16.858;2022-11-15T10:45:44;69.70;;;34.57;;
47155;SDS011;32908;52.344;16.858;2022-11-15T10:48:23;71.27;;;38.90;;
47155;SDS011;32908;52.344;16.858;2022-11-15T10:50:53;79.10;;;44.07;;
47155;SDS011;32908;52.344;16.858;2022-11-15T10:53:23;74.73;;;40.63;;
47155;SDS011;32908;52.344;16.858;2022-11-15T10:55:55;69.60;;;40.30;;
47155;SDS011;32908;52.344;16.858;2022-11-15T10:58:42;72.00;;;42.00;;
47155;SDS011;32908;52.344;16.858;2022-11-15T11:01:13;71.60;;;38.17;;
47155;SDS011;32908;52.344;16.858;2022-11-15T11:03:44;64.73;;;37.40;;
47155;SDS011;32908;52.344;16.858;2022-11-15T11:06:14;73.27;;;41.00;;
47155;SDS011;32908;52.344;16.858;2022-11-15T11:08:53;71.77;;;40.07;;
47155;SDS011;32908;52.344;16.858;2022-11-15T11:11:24;61.57;;;35.90;;
47155;SDS011;32908;52.344;16.858;2022-11-15T11:13:53;79.40;;;49.30;;
47155;SDS011;32908;52.344;16.858;2022-11-15T11:16:34;83.13;;;47.00;;
47155;SDS011;32908;52.344;16.858;2022-11-15T11:19:19;77.30;;;41.53;;
47155;SDS011;32908;52.344;16.858;2022-11-15T11:22:03;78.27;;;45.20;;
47155;SDS011;32908;52.344;16.858;2022-11-15T11:24:38;93.03;;;51.13;;
47155;SDS011;32908;52.344;16.858;2022-11-15T11:27:16;83.60;;;43.97;;
47155;SDS011;32908;52.344;16.858;2022-11-15T11:29:56;97.57;;;50.27;;
47155;SDS011;32908;52.344;16.858;2022-11-15T11:32:38;98.13;;;54.50;;
47155;SDS011;32908;52.344;16.858;2022-11-15T11:35:14;86.40;;;46.47;;
47155;SDS011;32908;52.344;16.858;2022-11-15T11:37:49;80.53;;;45.77;;
47155;SDS011;32908;52.344;16.858;2022-11-15T11:40:24;69.50;;;39.83;;
47155;SDS011;32908;52.344;16.858;2022-11-15T11:42:58;87.77;;;46.80;;
47155;SDS011;32908;52.344;16.858;2022-11-15T11:48:21;111.30;;;56.73;;
47155;SDS011;32908;52.344;16.858;2022-11-15T11:53:31;73.10;;;41.07;;
47155;SDS011;32908;52.344;16.858;2022-11-15T11:56:06;71.03;;;41.10;;
47155;SDS011;32908;52.344;16.858;2022-11-15T11:58:40;103.03;;;53.03;;
47155;SDS011;32908;52.344;16.858;2022-11-15T12:01:13;111.80;;;62.93;;
47155;SDS011;32908;52.344;16.858;2022-11-15T12:03:48;94.90;;;49.30;;
47155;SDS011;32908;52.344;16.858;2022-11-15T12:06:21;82.77;;;43.33;;
47155;SDS011;32908;52.344;16.858;2022-11-15T12:08:58;76.60;;;42.63;;
47155;SDS011;32908;52.344;16.858;2022-11-15T12:11:29;75.37;;;42.67;;
47155;SDS011;32908;52.344;16.858;2022-11-15T12:14:01;72.23;;;41.70;;
47155;SDS011;32908;52.344;16.858;2022-11-15T12:16:31;74.97;;;41.43;;
47155;SDS011;32908;52.344;16.858;2022-11-15T12:19:01;77.73;;;39.97;;
47155;SDS011;32908;52.344;16.858;2022-11-15T12:21:34;77.17;;;39.90;;
47155;SDS011;32908;52.344;16.858;2022-11-15T12:24:06;76.60;;;40.90;;
47155;SDS011;32908;52.344;16.858;2022-11-15T12:26:41;87.30;;;46.93;;
47155;SDS011;32908;52.344;16.858;2022-11-15T12:29:14;73.07;;;36.53;;
47155;SDS011;32908;52.344;16.858;2022-11-15T12:31:47;84.47;;;42.93;;
47155;SDS011;32908;52.344;16.858;2022-11-15T12:34:43;80.13;;;42.50;;
47155;SDS011;32908;52.344;16.858;2022-11-15T12:43:04;72.37;;;41.70;;
47155;SDS011;32908;52.344;16.858;2022-11-15T12:45:47;70.55;;;39.55;;
47155;SDS011;32908;52.344;16.858;2022-11-15T12:51:16;74.30;;;40.77;;
47155;SDS011;32908;52.344;16.858;2022-11-15T12:53:45;74.17;;;42.20;;
47155;SDS011;32908;52.344;16.858;2022-11-15T12:56:23;65.67;;;38.47;;
47155;SDS011;32908;52.344;16.858;2022-11-15T12:58:54;67.87;;;38.30;;
47155;SDS011;32908;52.344;16.858;2022-11-15T13:04:27;66.43;;;38.27;;
47155;SDS011;32908;52.344;16.858;2022-11-15T13:06:59;76.50;;;41.93;;
47155;SDS011;32908;52.344;16.858;2022-11-15T13:15:32;69.07;;;37.23;;
47155;SDS011;32908;52.344;16.858;2022-11-15T13:20:55;68.97;;;37.20;;
47155;SDS011;32908;52.344;16.858;2022-11-15T13:23:25;64.77;;;36.93;;
47155;SDS011;32908;52.344;16.858;2022-11-15T13:26:12;66.13;;;37.63;;
47155;SDS011;32908;52.344;16.858;2022-11-15T13:28:44;69.60;;;38.23;;
47155;SDS011;32908;52.344;16.858;2022-11-15T13:31:23;69.57;;;39.43;;
47155;SDS011;32908;52.344;16.858;2022-11-15T13:33:54;73.87;;;42.73;;
47155;SDS011;32908;52.344;16.858;2022-11-15T13:36:25;87.43;;;46.93;;
47155;SDS011;32908;52.344;16.858;2022-11-15T13:38:56;81.83;;;44.40;;
47155;SDS011;32908;52.344;16.858;2022-11-15T13:41:27;90.93;;;47.20;;
47155;SDS011;32908;52.344;16.858;2022-11-15T13:43:58;87.07;;;47.07;;
47155;SDS011;32908;52.344;16.858;2022-11-15T13:46:28;84.33;;;43.30;;
47155;SDS011;32908;52.344;16.858;2022-11-15T13:48:59;83.33;;;43.37;;
47155;SDS011;32908;52.344;16.858;2022-11-15T13:51:35;88.70;;;47.80;;
47155;SDS011;32908;52.344;16.858;2022-11-15T13:54:07;84.67;;;44.37;;
47155;SDS011;32908;52.344;16.858;2022-11-15T13:56:40;85.03;;;38.27;;
47155;SDS011;32908;52.344;16.858;2022-11-15T13:59:15;79.70;;;38.37;;
47155;SDS011;32908;52.344;16.858;2022-11-15T14:01:48;86.53;;;41.90;;
47155;SDS011;32908;52.344;16.858;2022-11-15T14:04:19;85.27;;;40.57;;
47155;SDS011;32908;52.344;16.858;2022-11-15T14:06:50;93.20;;;48.17;;
47155;SDS011;32908;52.344;16.858;2022-11-15T14:09:28;88.93;;;47.03;;
47155;SDS011;32908;52.344;16.858;2022-11-15T14:11:59;89.20;;;48.00;;
47155;SDS011;32908;52.344;16.858;2022-11-15T14:14:29;91.70;;;47.67;;
47155;SDS011;32908;52.344;16.858;2022-11-15T14:16:58;94.15;;;45.90;;
47155;SDS011;32908;52.344;16.858;2022-11-15T14:19:38;90.73;;;46.50;;
47155;SDS011;32908;52.344;16.858;2022-11-15T14:22:14;104.17;;;42.60;;
47155;SDS011;32908;52.344;16.858;2022-11-15T14:24:47;107.40;;;44.10;;
47155;SDS011;32908;52.344;16.858;2022-11-15T14:27:31;97.90;;;44.57;;
47155;SDS011;32908;52.344;16.858;2022-11-15T14:30:01;103.60;;;43.93;;
47155;SDS011;32908;52.344;16.858;2022-11-15T14:32:39;92.57;;;43.00;;
47155;SDS011;32908;52.344;16.858;2022-11-15T14:35:13;80.70;;;43.27;;
47155;SDS011;32908;52.344;16.858;2022-11-15T14:37:44;74.57;;;41.13;;
47155;SDS011;32908;52.344;16.858;2022-11-15T14:40:13;75.30;;;38.93;;
47155;SDS011;32908;52.344;16.858;2022-11-15T14:42:42;70.10;;;38.17;;
47155;SDS011;32908;52.344;16.858;2022-11-15T14:45:12;76.47;;;39.23;;
47155;SDS011;32908;52.344;16.858;2022-11-15T14:47:42;95.60;;;39.10;;
47155;SDS011;32908;52.344;16.858;2022-11-15T14:50:14;90.87;;;42.27;;
47155;SDS011;32908;52.344;16.858;2022-11-15T14:52:44;79.30;;;40.00;;
47155;SDS011;32908;52.344;16.858;2022-11-15T14:55:14;78.90;;;40.17;;
47155;SDS011;32908;52.344;16.858;2022-11-15T14:57:46;69.60;;;38.90;;
47155;SDS011;32908;52.344;16.858;2022-11-15T15:00:18;68.83;;;37.93;;
47155;SDS011;32908;52.344;16.858;2022-11-15T15:02:47;67.53;;;38.57;;